Home > Products > Valid Products > TAF

000
FTUS44 KOUN 291549 AAB
TAFWWR
TAF AMD
KWWR 291549Z 2916/3012 05025G30KT P6SM -RA OVC003
     FM291800 09012KT P6SM BKN010
     FM292200 33012KT P6SM BKN025
     FM300300 28016KT P6SM SCT250=



000
FTUS44 KOUN 291547 AAC
TAFGAG
TAF AMD
KGAG 291547Z 2916/3012 06020G30KT P6SM -RA VCTS OVC006CB
     FM291800 09012KT P6SM BKN010
     FM292200 33012KT P6SM BKN025
     FM300300 28016KT P6SM SCT250=



000
FTUS44 KOUN 291540 AAC
TAFOKC
TAF AMD
KOKC 291540Z 2916/3012 09015G20KT P6SM OVC008
     FM291800 13014KT P6SM OVC020
      TEMPO 2920/2924 2SM TSRA BR BKN008 OVC025CB
     FM300100 16012KT P6SM BKN100=



000
FTUS44 KOUN 291519 AAB
TAFSPS
TAF AMD
KSPS 291519Z 2915/3012 11015KT P6SM BKN030
     FM292100 18015G24KT P6SM SCT040 SCT250
     FM300400 24012KT P6SM SCT250=



000
FTUS44 KOUN 291505 AAB
TAFHBR
TAF AMD
KHBR 291505Z 2915/3012 09018G25KT 6SM BR OVC005
     FM291700 14014G20KT P6SM BKN040
     FM292200 26020G28KT P6SM SCT040 SCT250
     FM300600 32017KT P6SM SCT250=



000
FTUS44 KOUN 291432 AAA
TAFPNC
TAF AMD
KPNC 291432Z 2915/3012 04010G15KT P6SM VCSH OVC025
      TEMPO 2915/2918 5SM -TSRA BR BKN015CB
     FM292000 11014G21KT P6SM OVC025
      TEMPO 2921/3001 3SM TSRA BR OVC015CB
     FM300200 15012KT P6SM BKN050=



000
FTUS44 KOUN 291428 AAB
TAFGAG
TAF AMD
KGAG 291428Z 2914/3012 06020G30KT P6SM -RA OVC006
      TEMPO 2914/2916 4SM -TSRA BR BKN006 OVC015CB
     FM291800 09012KT P6SM BKN010
     FM292200 33012KT P6SM BKN025
     FM300300 28016KT P6SM SCT250=



000
FTUS44 KOUN 291417 AAB
TAFOKC
TAF AMD
KOKC 291417Z 2914/3012 09010KT P6SM VCSH OVC010
      TEMPO 2914/2918 3SM -TSRA BR OVC006CB
     FM291800 13014KT P6SM BKN025
      TEMPO 2920/2924 2SM TSRA BR BKN008 OVC025CB
     FM300100 16012KT P6SM BKN100=



000
FTUS44 KOUN 291413 AAA
TAFWWR
TAF AMD
KWWR 291413Z 2914/3012 05025G30KT P6SM -TSRA BKN017 OVC025CB
      TEMPO 2914/2916 3SM -TSRA BR BKN005 OVC020CB
     FM291800 09012KT P6SM BKN010
     FM292200 33012KT P6SM BKN025
     FM300300 28016KT P6SM SCT250=



000
FTUS44 KOUN 291413 AAA
TAFWWR
TAF AMD
KWWR 291413Z 2914/3012 05025G30KT P6SM -TSRA BKN017 OVC025CB
      TEMPO 2914/2916 3SM -TSRA BR BKN005 OVC020CB
     FM291800 09012KT P6SM BKN010
     FM292200 33012KT P6SM BKN025
     FM300300 28016KT P6SM SCT250=



000
FTUS44 KOUN 291411 AAA
TAFSPS
TAF AMD
KSPS 291411Z 2914/3012 08012KT P6SM VCTS OVC015CB
     FM291600 15015G24KT P6SM BKN030
     FM292100 18015G24KT P6SM SCT040 SCT250
     FM300400 24012KT P6SM SCT250=



000
FTUS44 KOUN 291411 AAA
TAFSPS
TAF AMD
KSPS 291411Z 2914/3012 08012KT P6SM VCTS OVC015CB
     FM291600 15015G24KT P6SM BKN030
     FM292100 18015G24KT P6SM SCT040 SCT250
     FM300400 24012KT P6SM SCT250=



000
FTUS44 KOUN 291407 AAA
TAFGAG
TAF AMD
KGAG 291407Z 2914/3012 02014G22KT P6SM -TSRA BKN017 OVC025CB
      TEMPO 2914/2916 3SM -TSRA BR BKN005 OVC020CB
     FM291800 09012KT P6SM BKN010
     FM292200 33012KT P6SM BKN025
     FM300300 28016KT P6SM SCT250=



000
FTUS44 KOUN 291405 AAA
TAFLAW
TAF AMD
KLAW 291405Z 2914/3012 07012KT P6SM OVC025
      TEMPO 2914/2916 OVC008
     FM291600 14014G20KT P6SM BKN015
     FM292200 18015G24KT P6SM SCT040 SCT250
     FM300400 24012KT P6SM SCT250=



000
FTUS44 KOUN 291405 AAA
TAFLAW
TAF AMD
KLAW 291405Z 2914/3012 07012KT P6SM OVC025
      TEMPO 2914/2916 OVC008
     FM291600 14014G20KT P6SM BKN015
     FM292200 18015G24KT P6SM SCT040 SCT250
     FM300400 24012KT P6SM SCT250=



000
FTUS44 KOUN 291403 AAA
TAFHBR
TAF AMD
KHBR 291403Z 2914/3012 09018G25KT P6SM OVC025
      TEMPO 2914/2916 3SM -TSRA BR BKN009 OVC020CB
     FM291600 14014G20KT P6SM BKN040
     FM292200 26020G28KT P6SM SCT040 SCT250
     FM300600 32017KT P6SM SCT250=



000
FTUS44 KOUN 291403 AAA
TAFHBR
TAF AMD
KHBR 291403Z 2914/3012 09018G25KT P6SM OVC025
      TEMPO 2914/2916 3SM -TSRA BR BKN009 OVC020CB
     FM291600 14014G20KT P6SM BKN040
     FM292200 26020G28KT P6SM SCT040 SCT250
     FM300600 32017KT P6SM SCT250=



000
FTUS44 KOUN 291239 AAB
TAFOUN
TAF AMD
KOUN 291239Z 2913/3012 08012KT P6SM VCSH BKN009
     FM291800 12014KT P6SM BKN025
      TEMPO 2920/2924 2SM TSRA BR BKN008 OVC025CB
     FM300100 16012KT P6SM BKN100=



000
FTUS44 KOUN 291238 AAA
TAFOKC
TAF AMD
KOKC 291238Z 2913/3012 07014KT P6SM VCSH BKN015
     FM291800 13014KT P6SM BKN025
      TEMPO 2920/2924 2SM TSRA BR BKN008 OVC025CB
     FM300100 16012KT P6SM BKN100=



000
FTUS44 KOUN 291140
TAFOUN
TAF
KOUN 291140Z 2912/3012 07013KT P6SM OVC045
      TEMPO 2912/2916 -SHRA BKN025
     FM291800 12014KT P6SM BKN025
      TEMPO 2920/2924 2SM TSRA BR BKN008 OVC025CB
     FM300100 16012KT P6SM BKN100=



000
FTUS44 KOUN 291140
TAFWWR
TAF
KWWR 291140Z 2912/3012 02015G24KT P6SM -TSRA BKN017 OVC025CB
      TEMPO 2912/2916 3SM -TSRA BR OVC008CB
     FM291800 09012KT P6SM BKN010
     FM292200 33012KT P6SM BKN025
     FM300300 28016KT P6SM SCT250=



000
FTUS44 KOUN 291140
TAFSPS
TAF
KSPS 291140Z 2912/3012 08012KT P6SM OVC015
     FM291600 15015G24KT P6SM BKN030
     FM292100 18015G24KT P6SM SCT040 SCT250
     FM300400 24012KT P6SM SCT250=



000
FTUS44 KOUN 291140
TAFHBR
TAF
KHBR 291140Z 2912/3012 09016G22KT P6SM OVC025
      TEMPO 2912/2916 3SM -TSRA BR OVC015CB
     FM291600 14014G20KT P6SM BKN040
     FM292200 26020G28KT P6SM SCT040 SCT250
     FM300600 32017KT P6SM SCT250=



000
FTUS44 KOUN 291140
TAFPNC
TAF
KPNC 291140Z 2912/3012 07016G24KT P6SM BKN060
     FM291400 09015G22KT P6SM VCSH OVC025
      TEMPO 2914/2918 5SM -TSRA BR BKN015CB
     FM292000 11014G21KT P6SM OVC025
      TEMPO 2921/3001 3SM TSRA BR OVC015CB
     FM300200 15012KT P6SM BKN050=



000
FTUS44 KOUN 291140
TAFGAG
TAF
KGAG 291140Z 2912/3012 02014G22KT P6SM -TSRA BKN017 OVC025CB
      TEMPO 2912/2916 3SM -TSRA BR OVC008CB
     FM291800 09012KT P6SM BKN010
     FM292200 33012KT P6SM BKN025
     FM300300 28016KT P6SM SCT250=



000
FTUS44 KOUN 291140
TAFLAW
TAF
KLAW 291140Z 2912/3012 07012KT P6SM OVC025
     FM291500 14014G20KT P6SM BKN015
     FM292200 18015G24KT P6SM SCT040 SCT250
     FM300400 24012KT P6SM SCT250=



000
FTUS44 KOUN 291140
TAFOKC
TAF
KOKC 291140Z 2912/3012 07014KT P6SM OVC045
      TEMPO 2914/2918 BKN025
     FM291800 13014KT P6SM BKN025
      TEMPO 2920/2924 2SM TSRA BR BKN008 OVC025CB
     FM300100 16012KT P6SM BKN100=



000
FTUS44 KOUN 291140
TAFOUN
TAF
KOUN 291140Z 2912/3012 07013KT P6SM OVC045
      TEMPO 2912/2916 -SHRA BKN025
     FM291800 12014KT P6SM BKN025
      TEMPO 2920/2924 2SM TSRA BR BKN008 OVC025CB
     FM300100 16012KT P6SM BKN100=



000
FTUS44 KOUN 291140
TAFPNC
TAF
KPNC 291140Z 2912/3012 07016G24KT P6SM BKN060
     FM291400 09015G22KT P6SM VCSH OVC025
      TEMPO 2914/2918 5SM -TSRA BR BKN015CB
     FM292000 11014G21KT P6SM OVC025
      TEMPO 2921/3001 3SM TSRA BR OVC015CB
     FM300200 15012KT P6SM BKN050=



000
FTUS44 KOUN 291140
TAFGAG
TAF
KGAG 291140Z 2912/3012 02014G22KT P6SM -TSRA BKN017 OVC025CB
      TEMPO 2912/2916 3SM -TSRA BR OVC008CB
     FM291800 09012KT P6SM BKN010
     FM292200 33012KT P6SM BKN025
     FM300300 28016KT P6SM SCT250=



000
FTUS44 KOUN 291140
TAFWWR
TAF
KWWR 291140Z 2912/3012 02015G24KT P6SM -TSRA BKN017 OVC025CB
      TEMPO 2912/2916 3SM -TSRA BR OVC008CB
     FM291800 09012KT P6SM BKN010
     FM292200 33012KT P6SM BKN025
     FM300300 28016KT P6SM SCT250=



000
FTUS44 KOUN 291140
TAFOKC
TAF
KOKC 291140Z 2912/3012 07014KT P6SM OVC045
      TEMPO 2914/2918 BKN025
     FM291800 13014KT P6SM BKN025
      TEMPO 2920/2924 2SM TSRA BR BKN008 OVC025CB
     FM300100 16012KT P6SM BKN100=



000
FTUS44 KOUN 291140
TAFSPS
TAF
KSPS 291140Z 2912/3012 08012KT P6SM OVC015
     FM291600 15015G24KT P6SM BKN030
     FM292100 18015G24KT P6SM SCT040 SCT250
     FM300400 24012KT P6SM SCT250=



000
FTUS44 KOUN 291140
TAFHBR
TAF
KHBR 291140Z 2912/3012 09016G22KT P6SM OVC025
      TEMPO 2912/2916 3SM -TSRA BR OVC015CB
     FM291600 14014G20KT P6SM BKN040
     FM292200 26020G28KT P6SM SCT040 SCT250
     FM300600 32017KT P6SM SCT250=



000
FTUS44 KOUN 291140
TAFLAW
TAF
KLAW 291140Z 2912/3012 07012KT P6SM OVC025
     FM291500 14014G20KT P6SM BKN015
     FM292200 18015G24KT P6SM SCT040 SCT250
     FM300400 24012KT P6SM SCT250=



000
FTUS44 KOUN 290520
TAFPNC
TAF
KPNC 290520Z 2906/3006 06012KT P6SM SCT050 BKN220
      TEMPO 2910/2914 3SM -TSRA BR OVC025CB
     FM291400 08014G20KT 6SM -TSRA BR OVC015CB
     FM292000 13015G22KT P6SM OVC025
      TEMPO 3000/3004 2SM TSRA BR OVC015CB
     FM300400 34013KT 2SM TSRA BR OVC025CB=



000
FTUS44 KOUN 290520
TAFOUN
TAF
KOUN 290520Z 2906/3006 08012KT P6SM SCT050 BKN180
     FM290800 09012KT 4SM -TSRA BR OVC040CB
     FM291200 09010KT 5SM -TSRA BR OVC012CB
     FM291900 12014KT P6SM BKN025
      TEMPO 2922/3002 2SM TSRA BR BKN008 OVC025CB
     FM300300 18013KT P6SM BKN035=



000
FTUS44 KOUN 290520
TAFLAW
TAF
KLAW 290520Z 2906/3006 08010KT P6SM BKN050
      TEMPO 2908/2912 3SM -TSRA BR OVC025CB
     FM291200 11010G15KT 4SM -TSRA BR OVC008CB
     FM291700 15013KT P6SM BKN020
     FM292100 16014G20KT P6SM BKN040
     FM300300 34012KT P6SM SCT040 BKN120=



000
FTUS44 KOUN 290520
TAFOKC
TAF
KOKC 290520Z 2906/3006 08012KT P6SM SCT050 BKN180
     FM290800 09012KT 4SM -TSRA BR OVC040CB
     FM291200 09010KT 5SM -TSRA BR OVC012CB
     FM291900 12014KT P6SM BKN025
      TEMPO 2922/3002 2SM TSRA BR BKN008 OVC025CB
     FM300300 18013KT P6SM BKN035=



000
FTUS44 KOUN 290520
TAFHBR
TAF
KHBR 290520Z 2906/3006 09013KT P6SM BKN050 BKN120
      TEMPO 2908/2912 4SM -TSRA BR OVC030CB
     FM291200 08012G17KT 4SM -TSRA BR OVC012CB
     FM291700 15013KT P6SM BKN025
     FM292100 17013G20KT P6SM BKN040
     FM300100 34013KT P6SM SCT040 BKN120=



000
FTUS44 KOUN 290520
TAFGAG
TAF
KGAG 290520Z 2906/3006 04015G23KT P6SM BKN040 OVC110
      TEMPO 2906/2908 3SM -TSRA BR OVC015CB
     FM290800 09012KT P6SM OVC025
      TEMPO 2908/2912 3SM -TSRA BR OVC012CB
     FM291200 08012G18KT 5SM -TSRA BR OVC008CB
     FM291900 08011KT P6SM BKN025
     FM292200 34012KT P6SM BKN035=



000
FTUS44 KOUN 290520
TAFWWR
TAF
KWWR 290520Z 2906/3006 03014G22KT P6SM BKN040 OVC110
      TEMPO 2906/2908 3SM -TSRA BR OVC015CB
     FM290800 08012KT P6SM OVC025
      TEMPO 2908/2912 3SM -TSRA BR OVC012CB
     FM291200 08012G18KT 5SM -TSRA BR OVC008CB
     FM291900 12011KT P6SM BKN025
     FM292200 34012KT P6SM BKN035=



000
FTUS44 KOUN 290520
TAFSPS
TAF
KSPS 290520Z 2906/3006 09010KT P6SM BKN050
      TEMPO 2908/2912 3SM -TSRA BR OVC025CB
     FM291200 13012G16KT P6SM OVC015
      TEMPO 2912/2916 4SM -TSRA BR OVC008CB
     FM291800 18014G23KT P6SM BKN035
     FM292100 20015G24KT P6SM SCT050
     FM300300 34012KT P6SM SCT050=



000
FTUS44 KOUN 282322
TAFGAG
TAF
KGAG 282322Z 2900/2924 09012KT P6SM BKN050
     FM290400 08012KT P6SM OVC025
      TEMPO 2904/2908 3SM -TSRA BR OVC015CB
     FM290800 09012KT P6SM OVC015
      TEMPO 2908/2912 3SM -TSRA BR OVC012CB
     FM291200 08012G18KT 5SM -TSRA BR OVC008CB
     FM291800 12011KT P6SM BKN025
      TEMPO 2921/2924 3SM TSRA OVC015CB=



000
FTUS44 KOUN 282322
TAFSPS
TAF
KSPS 282322Z 2900/2924 12013KT P6SM FEW050 BKN250
     FM290600 09010KT P6SM OVC050
      TEMPO 2908/2912 3SM -TSRA BR OVC015CB
     FM291200 14012G16KT P6SM OVC015
      TEMPO 2912/2916 4SM -TSRA BR OVC008CB
     FM291800 18014G23KT P6SM BKN035=



000
FTUS44 KOUN 282322
TAFHBR
TAF
KHBR 282322Z 2900/2924 11012KT P6SM SCT050 BKN250
     FM290400 11011KT P6SM OVC050
      TEMPO 2908/2912 4SM -TSRA BR OVC020CB
     FM291200 08012G17KT 4SM -TSRA BR OVC008CB
     FM291600 12013KT P6SM BKN025
     FM292100 18015G23KT P6SM SCT040=



000
FTUS44 KOUN 282322
TAFWWR
TAF
KWWR 282322Z 2900/2924 09012KT P6SM BKN050
     FM290400 09012KT P6SM OVC025
      TEMPO 2904/2908 3SM -TSRA BR OVC015CB
     FM290800 08012KT P6SM OVC015
      TEMPO 2908/2912 3SM -TSRA BR OVC012CB
     FM291200 08012G18KT 5SM -TSRA BR OVC008CB
     FM291800 12011KT P6SM BKN025
      TEMPO 2921/2924 3SM TSRA OVC015CB=



000
FTUS44 KOUN 282322
TAFPNC
TAF
KPNC 282322Z 2900/2924 09010KT P6SM BKN150
     FM290400 06012KT P6SM BKN050
      TEMPO 2910/2914 3SM -TSRA BR OVC025CB
     FM291400 08014G20KT 6SM -TSRA BR OVC015CB
     FM291800 09014G20KT P6SM OVC025
      TEMPO 2920/2924 3SM TSRA OVC015CB=



000
FTUS44 KOUN 282322
TAFOUN
TAF
KOUN 282322Z 2900/2924 10012KT P6SM SCT050 BKN250
     FM290600 09012KT P6SM BKN050
     FM290800 09012KT 4SM -TSRA BR OVC040CB
     FM291200 09010KT 5SM -TSRA BR OVC012CB
     FM291900 12014KT P6SM BKN025
      TEMPO 2921/2924 2SM TSRA BKN008 OVC025CB=



000
FTUS44 KOUN 282322
TAFLAW
TAF
KLAW 282322Z 2900/2924 12013KT P6SM FEW050 BKN250
     FM290500 08010KT P6SM BKN050
      TEMPO 2908/2912 3SM -TSRA BR OVC015CB
     FM291200 11010G15KT 4SM -TSRA BR OVC008CB
     FM291600 12013KT P6SM BKN020
     FM292100 18014G20KT P6SM BKN040=



000
FTUS44 KOUN 282322
TAFOKC
TAF
KOKC 282322Z 2900/2924 11012KT P6SM SCT050 BKN250
     FM290600 10012KT P6SM BKN050
     FM290800 09012KT 4SM -TSRA BR OVC040CB
     FM291200 09010KT 5SM -TSRA BR OVC012CB
     FM291900 12014KT P6SM BKN025
      TEMPO 2921/2924 2SM TSRA BKN008 OVC025CB=



000
FTUS44 KOUN 281720
TAFPNC
TAF
KPNC 281720Z 2818/2918 06009KT P6SM BKN150
     FM290400 08013KT P6SM BKN050
      TEMPO 2908/2912 3SM -TSRA BR OVC025CB
     FM291200 08014G20KT 6SM -TSRA BR OVC015CB=



000
FTUS44 KOUN 281720
TAFSPS
TAF
KSPS 281720Z 2818/2918 12015G23KT P6SM SCT250
     FM290000 11010KT P6SM BKN250
     FM290600 10010KT P6SM OVC050
      TEMPO 2908/2912 3SM -TSRA BR OVC015CB
     FM291200 14012G16KT P6SM OVC015
      TEMPO 2912/2916 4SM -TSRA BR OVC006CB=



000
FTUS44 KOUN 281720
TAFGAG
TAF
KGAG 281720Z 2818/2918 06010KT P6SM BKN250
     FM282000 11015KT P6SM BKN090
     FM290000 10012KT P6SM BKN050
     FM290300 10012KT P6SM OVC025
      TEMPO 2903/2907 3SM -TSRA BR OVC015CB
     FM290700 10012KT P6SM OVC015
      TEMPO 2908/2912 3SM -TSRA BR OVC012CB
     FM291200 08010G18KT 5SM -TSRA BR OVC008CB=



000
FTUS44 KOUN 281720
TAFOKC
TAF
KOKC 281720Z 2818/2918 06009KT P6SM SCT250
     FM282000 11012KT P6SM SCT050
     FM290600 10012KT P6SM BKN050
     FM290800 09012KT 4SM -TSRA BR OVC040CB
     FM291400 09010KT 5SM -TSRA BR OVC012CB=



000
FTUS44 KOUN 281720
TAFOUN
TAF
KOUN 281720Z 2818/2918 05009KT P6SM SCT250
     FM282000 11012KT P6SM SCT050
     FM290600 09012KT P6SM BKN050
     FM290800 09012KT 4SM -TSRA BR OVC040CB
     FM291400 09010KT 5SM -TSRA BR OVC012CB=



000
FTUS44 KOUN 281720
TAFHBR
TAF
KHBR 281720Z 2818/2918 11017G24KT P6SM FEW050 SCT250
     FM290500 12010KT P6SM OVC050
      TEMPO 2908/2912 4SM -TSRA BR OVC020CB
     FM291200 08010G16KT 6SM BR OVC008
      TEMPO 2912/2915 4SM -TSRA BR OVC006CB=



000
FTUS44 KOUN 281720
TAFWWR
TAF
KWWR 281720Z 2818/2918 07009G15KT P6SM BKN250
     FM290000 10012KT P6SM BKN050
     FM290300 09012KT P6SM OVC025
      TEMPO 2903/2907 3SM -TSRA BR OVC015CB
     FM290700 08009KT P6SM OVC015
      TEMPO 2908/2912 3SM -TSRA BR OVC012CB
     FM291200 08010G18KT 5SM -TSRA BR OVC008CB=



000
FTUS44 KOUN 281720
TAFLAW
TAF
KLAW 281720Z 2818/2918 11014G22KT P6SM SCT250
     FM290000 10012KT P6SM BKN250
     FM290600 10010KT P6SM BKN050
      TEMPO 2908/2912 3SM -TSRA BR OVC015CB
     FM291200 11010G15KT 6SM BR OVC010
      TEMPO 2912/2916 4SM -TSRA BR OVC006CB=



000
FTUS44 KOUN 281512 AAA
TAFHBR
TAF AMD
KHBR 281512Z 2815/2912 11017G24KT P6SM FEW050 SCT250
     FM290500 12010KT P6SM OVC050
      TEMPO 2908/2912 4SM -TSRA BR OVC020CB=



000
FTUS44 KOUN 281144
TAFWWR
TAF
KWWR 281144Z 2812/2912 07007KT P6SM BKN250
     FM282000 08009KT P6SM BKN090
     FM290000 10012KT P6SM BKN050 PROB30 2900/2903 4SM -TSRA BR
      OVC025CB
     FM290300 09012KT P6SM OVC025
      TEMPO 2903/2907 3SM -TSRA BR OVC015CB
     FM290700 08009KT P6SM OVC015
      TEMPO 2908/2912 3SM -TSRA BR OVC012CB=



000
FTUS44 KOUN 281144
TAFHBR
TAF
KHBR 281144Z 2812/2912 08011KT P6SM SCT250
     FM281900 14014G21KT P6SM SCT050 BKN250
     FM290500 12010KT P6SM OVC050
      TEMPO 2908/2912 4SM -TSRA BR OVC020CB=



000
FTUS44 KOUN 281144
TAFOUN
TAF
KOUN 281144Z 2812/2912 05009KT P6SM SCT250
     FM282000 11012KT P6SM SCT100
     FM290600 09012KT P6SM BKN050
     FM290800 09012KT 4SM -TSRA BR OVC040CB=



000
FTUS44 KOUN 281144
TAFPNC
TAF
KPNC 281144Z 2812/2912 02008KT P6SM SCT250
     FM281800 06009KT P6SM BKN150
     FM290400 08013KT P6SM BKN050
      TEMPO 2908/2912 3SM -TSRA BR OVC025CB=



000
FTUS44 KOUN 281144
TAFGAG
TAF
KGAG 281144Z 2812/2912 06010KT P6SM BKN250
     FM282000 11015KT P6SM BKN090
     FM290000 10012KT P6SM BKN050 PROB30 2900/2903 4SM -TSRA BR
      OVC025CB
     FM290300 10012KT P6SM OVC025
      TEMPO 2903/2907 3SM -TSRA BR OVC015CB
     FM290700 10012KT P6SM OVC015
      TEMPO 2908/2912 3SM -TSRA BR OVC012CB=



000
FTUS44 KOUN 281144
TAFOKC
TAF
KOKC 281144Z 2812/2912 06009KT P6SM SCT250
     FM282000 11012KT P6SM SCT100
     FM290600 10012KT P6SM BKN050
     FM290800 09012KT 4SM -TSRA BR OVC040CB=



000
FTUS44 KOUN 281144
TAFSPS
TAF
KSPS 281144Z 2812/2912 10012KT P6SM FEW250
     FM281600 12015G23KT P6SM SCT250
     FM290000 11010KT P6SM BKN250
     FM290600 10010KT P6SM OVC050
      TEMPO 2908/2912 3SM -TSRA BR OVC015CB=



000
FTUS44 KOUN 281144
TAFLAW
TAF
KLAW 281144Z 2812/2912 06012KT P6SM FEW250
     FM281600 11014G22KT P6SM SCT250
     FM290000 10012KT P6SM BKN250
     FM290600 10010KT P6SM BKN050
      TEMPO 2908/2912 3SM -TSRA BR OVC015CB=



000
FTUS44 KOUN 280520
TAFGAG
TAF
KGAG 280520Z 2806/2906 VRB05KT P6SM SCT100 SCT250
     FM281400 06009KT P6SM BKN250
     FM281800 11014KT P6SM SCT090 BKN250
     FM290000 10012KT P6SM BKN050 BKN100 PROB30 2900/2906 4SM -TSRA
      BR OVC050CB=



000
FTUS44 KOUN 280520
TAFSPS
TAF
KSPS 280520Z 2806/2906 VRB05KT P6SM BKN250
     FM281300 09010KT P6SM BKN250
     FM281900 13015G22KT P6SM BKN080 BKN250 PROB30 2903/2906 4SM
      -TSRA BKN050CB OVC100=



000
FTUS44 KOUN 280520
TAFOUN
TAF
KOUN 280520Z 2806/2906 VRB04KT P6SM FEW250
     FM281200 05009KT P6SM SCT250
     FM282000 12013KT P6SM SCT100 BKN250=



000
FTUS44 KOUN 280520
TAFHBR
TAF
KHBR 280520Z 2806/2906 VRB06KT P6SM SCT250
     FM281400 09012KT P6SM BKN250
     FM282000 14015KT P6SM BKN090 BKN250 PROB30 2902/2906 5SM -TSRA
      BR BKN050CB OVC100=



000
FTUS44 KOUN 280520
TAFLAW
TAF
KLAW 280520Z 2806/2906 VRB03KT P6SM SCT250
     FM281300 08009KT P6SM BKN250
     FM282000 13014KT P6SM BKN090 BKN250 PROB30 2903/2906 5SM -TSRA
      BKN050CB OVC100=



000
FTUS44 KOUN 280520
TAFPNC
TAF
KPNC 280520Z 2806/2906 VRB03KT P6SM FEW250
     FM281400 04008KT P6SM SCT250
     FM282000 10009KT P6SM BKN250=



000
FTUS44 KOUN 280520
TAFWWR
TAF
KWWR 280520Z 2806/2906 VRB05KT P6SM SCT100 SCT250
     FM281400 07009KT P6SM BKN250
     FM281800 11013KT P6SM SCT090 BKN250
     FM290000 10012KT P6SM BKN050 BKN100 PROB30 2900/2906 4SM -TSRA
      BR OVC050CB=



000
FTUS44 KOUN 280520
TAFOKC
TAF
KOKC 280520Z 2806/2906 VRB04KT P6SM FEW250
     FM281200 05009KT P6SM SCT250
     FM282000 12013KT P6SM SCT100 BKN250=



000
FTUS44 KOUN 272320
TAFPNC
TAF
KPNC 272320Z 2800/2824 28010KT P6SM FEW060
     FM280100 VRB04KT P6SM FEW250
     FM281400 03008KT P6SM BKN250
     FM281900 09009KT P6SM BKN250=



000
FTUS44 KOUN 272320
TAFOUN
TAF
KOUN 272320Z 2800/2824 28008KT P6SM FEW060
     FM280100 VRB04KT P6SM FEW250
     FM281200 05009KT P6SM BKN250
     FM282000 12010KT P6SM BKN250=



000
FTUS44 KOUN 272320
TAFSPS
TAF
KSPS 272320Z 2800/2824 33009KT P6SM FEW060 FEW250
     FM280100 VRB04KT P6SM SCT250
     FM281300 08008KT P6SM BKN250
     FM281900 12015G22KT P6SM BKN070 BKN250=



000
FTUS44 KOUN 272320
TAFGAG
TAF
KGAG 272320Z 2800/2824 29010KT P6SM FEW250
     FM280200 VRB05KT P6SM SCT250
     FM281400 06009KT P6SM BKN250
     FM281800 11014KT P6SM SCT090 BKN250=



000
FTUS44 KOUN 272320
TAFLAW
TAF
KLAW 272320Z 2800/2824 VRB04KT P6SM FEW070 SCT250
     FM281300 09008KT P6SM BKN250
     FM282000 13013KT P6SM BKN090 BKN250=



000
FTUS44 KOUN 272320
TAFOKC
TAF
KOKC 272320Z 2800/2824 29013KT P6SM FEW060
     FM280100 VRB04KT P6SM FEW250
     FM281200 05009KT P6SM BKN250
     FM282000 12010KT P6SM BKN250=



000
FTUS44 KOUN 272320
TAFWWR
TAF
KWWR 272320Z 2800/2824 30012KT P6SM FEW250
     FM280200 VRB05KT P6SM SCT250
     FM281400 06009KT P6SM BKN250
     FM281800 10013KT P6SM SCT090 BKN250=



000
FTUS44 KOUN 272320
TAFHBR
TAF
KHBR 272320Z 2800/2824 31010KT P6SM SKC
     FM280100 VRB04KT P6SM SCT250
     FM281400 09010KT P6SM BKN250
     FM281900 12012KT P6SM BKN090 BKN250=



000
FTUS44 KOUN 271720
TAFOKC
TAF
KOKC 271720Z 2718/2818 32015G20KT P6SM FEW020
     FM280100 VRB04KT P6SM SCT250
     FM281200 03010KT P6SM BKN250
     FM281600 10010KT P6SM OVC250=



000
FTUS44 KOUN 271720
TAFSPS
TAF
KSPS 271720Z 2718/2818 33010G20KT P6SM SKC
     FM280100 VRB04KT P6SM BKN250
     FM281200 08010KT P6SM OVC250
     FM281600 15015G20KT P6SM OVC250=



000
FTUS44 KOUN 271720
TAFGAG
TAF
KGAG 271720Z 2718/2818 32020G30KT P6SM FEW250
     FM280000 29008KT P6SM SCT250
     FM280600 04008KT P6SM BKN250
     FM281600 09010KT P6SM BKN250=



000
FTUS44 KOUN 271720
TAFLAW
TAF
KLAW 271720Z 2718/2818 32010KT P6SM SKC
     FM280100 VRB04KT P6SM BKN250
     FM281200 08010KT P6SM OVC250
     FM281600 10015G20KT P6SM OVC250=



000
FTUS44 KOUN 271720
TAFWWR
TAF
KWWR 271720Z 2718/2818 30015G30KT P6SM FEW250
     FM280000 29008KT P6SM SCT250
     FM280600 04008KT P6SM BKN250
     FM281600 09010KT P6SM BKN250=



000
FTUS44 KOUN 271720
TAFHBR
TAF
KHBR 271720Z 2718/2818 34015G25KT P6SM SKC
     FM280100 VRB04KT P6SM BKN250
     FM281200 05010KT P6SM OVC250
     FM281600 10015G20KT P6SM OVC250=



000
FTUS44 KOUN 271720
TAFOUN
TAF
KOUN 271720Z 2718/2818 31014KT P6SM FEW020
     FM280100 VRB04KT P6SM SCT250
     FM281200 03010KT P6SM BKN250
     FM281600 10010KT P6SM OVC250=



000
FTUS44 KOUN 271720
TAFPNC
TAF
KPNC 271720Z 2718/2818 28010G20KT P6SM BKN020
      TEMPO 2719/2720 SCT025
     FM272000 29010G20KT P6SM SCT040
     FM280100 VRB04KT P6SM SCT200
     FM280800 35008KT P6SM BKN200=



000
FTUS44 KOUN 271720
TAFSPS
TAF
KSPS 271720Z 2718/2818 33010G20KT P6SM SKC
     FM280100 VRB04KT P6SM BKN250
     FM281200 08010KT P6SM OVC250
     FM281600 15015G20KT P6SM OVC250=



000
FTUS44 KOUN 271720
TAFPNC
TAF
KPNC 271720Z 2718/2818 28010G20KT P6SM BKN020
      TEMPO 2719/2720 SCT025
     FM272000 29010G20KT P6SM SCT040
     FM280100 VRB04KT P6SM SCT200
     FM280800 35008KT P6SM BKN200=



000
FTUS44 KOUN 271720
TAFHBR
TAF
KHBR 271720Z 2718/2818 34015G25KT P6SM SKC
     FM280100 VRB04KT P6SM BKN250
     FM281200 05010KT P6SM OVC250
     FM281600 10015G20KT P6SM OVC250=



000
FTUS44 KOUN 271720
TAFLAW
TAF
KLAW 271720Z 2718/2818 32010KT P6SM SKC
     FM280100 VRB04KT P6SM BKN250
     FM281200 08010KT P6SM OVC250
     FM281600 10015G20KT P6SM OVC250=



000
FTUS44 KOUN 271523 AAB
TAFOKC
TAF AMD
KOKC 271523Z 2715/2812 30015G20KT P6SM FEW200
     FM280100 06007KT P6SM SKC=



000
FTUS44 KOUN 271521 AAA
TAFHBR
TAF AMD
KHBR 271521Z 2715/2812 34015G25KT P6SM SKC
     FM280100 08009KT P6SM SKC=



000
FTUS44 KOUN 271334 AAA
TAFLAW
TAF AMD
KLAW 271334Z 2714/2812 27006KT 2SM BR SCT004
      TEMPO 2714/2715 3/4SM BR BKN002
     FM271500 27010KT P6SM FEW250
     FM271600 32010KT P6SM SKC
     FM280000 05004KT P6SM SCT200=



000
FTUS44 KOUN 271331 AAA
TAFPNC
TAF AMD
KPNC 271331Z 2714/2812 17006KT P6SM SKC
     FM271600 30010KT P6SM SCT250
     FM280000 36003KT P6SM SCT100=



000
FTUS44 KOUN 271330 AAA
TAFOKC
TAF AMD
KOKC 271330Z 2714/2812 23006KT 6SM BR SCT004
     FM271500 24009KT P6SM SCT250
     FM271800 31014KT P6SM FEW250
     FM280100 06007KT P6SM SKC=



000
FTUS44 KOUN 271138
TAFWWR
TAF
KWWR 271138Z 2712/2812 30013G20KT P6SM FEW250
     FM280000 04007KT P6SM BKN100=



000
FTUS44 KOUN 271138
TAFGAG
TAF
KGAG 271138Z 2712/2812 31014G21KT P6SM FEW250
     FM280000 04006KT P6SM BKN100=



000
FTUS44 KOUN 271138
TAFPNC
TAF
KPNC 271138Z 2712/2812 17006KT P6SM OVC007
      TEMPO 2712/2715 4SM BR
     FM271500 30007KT P6SM BKN025
     FM271600 30010KT P6SM SCT250
     FM280000 36003KT P6SM SCT100=



000
FTUS44 KOUN 271138
TAFOKC
TAF
KOKC 271138Z 2712/2812 20006KT 3SM BR BKN005
      TEMPO 2712/2714 3/4SM BR VV002
     FM271400 24009KT P6SM SCT250
     FM271800 31014KT P6SM FEW250
     FM280100 06007KT P6SM SKC=



000
FTUS44 KOUN 271138
TAFOUN
TAF
KOUN 271138Z 2712/2812 18006KT 3SM BR BKN005
      TEMPO 2712/2714 1/2SM FG VV002
     FM271400 24009KT P6SM SCT250
     FM271800 31014KT P6SM FEW250
     FM280100 05005KT P6SM SKC=



000
FTUS44 KOUN 271138
TAFSPS
TAF
KSPS 271138Z 2712/2812 22008KT P6SM SCT250
     FM271400 28013KT P6SM SKC
     FM280100 07008KT P6SM SCT200=



000
FTUS44 KOUN 271138
TAFHBR
TAF
KHBR 271138Z 2712/2812 27010KT P6SM SCT250
     FM271700 32015G21KT P6SM SKC
     FM280100 08009KT P6SM SKC=



000
FTUS44 KOUN 271138
TAFLAW
TAF
KLAW 271138Z 2712/2812 19006KT 1/2SM FG VV002
      TEMPO 2712/2713 1/4SM FG VV001
     FM271330 27010KT P6SM FEW250
     FM271600 32010KT P6SM SKC
     FM280000 05004KT P6SM SCT200=



000
FTUS44 KOUN 271055 AAB
TAFLAW
TAF AMD
KLAW 271055Z 2711/2806 18006KT 1/2SM FG VV002
      TEMPO 2711/2713 1/4SM FG VV001
     FM271400 20005KT 2SM BR BKN002
     FM271600 32010KT P6SM SKC
     FM280100 VRB04KT P6SM SKC=



000
FTUS44 KOUN 270900 AAA
TAFPNC
TAF AMD
KPNC 270900Z 2709/2806 17006KT 3SM BR OVC013
     FM271300 20005KT 4SM BR BKN018
     FM271500 30010KT P6SM SCT250
     FM280000 VRB03KT P6SM SKC=



000
FTUS44 KOUN 270900 AAA
TAFPNC
TAF AMD
KPNC 270900Z 2709/2806 17006KT 3SM BR OVC013
     FM271300 20005KT 4SM BR BKN018
     FM271500 30010KT P6SM SCT250
     FM280000 VRB03KT P6SM SKC=



000
FTUS44 KOUN 270859 AAB
TAFOUN
TAF AMD
KOUN 270859Z 2709/2806 18006KT 3/4SM BR BKN003
     FM271300 20005KT 2SM BR BKN002
     FM271400 24009KT P6SM SCT250
     FM271800 31014KT P6SM FEW250
     FM280100 VRB04KT P6SM SKC=



000
FTUS44 KOUN 270858 AAA
TAFOKC
TAF AMD
KOKC 270858Z 2709/2806 20006KT 1/2SM FG VV002
     FM271300 20005KT 2SM BR BKN002
     FM271400 24009KT P6SM SCT250
     FM271800 31014KT P6SM FEW250
     FM280100 VRB04KT P6SM SKC=



000
FTUS44 KOUN 270855 AAA
TAFHBR
TAF AMD
KHBR 270855Z 2709/2806 18006KT 1/2SM FG VV002
     FM271300 20005KT 2SM BR BKN002
     FM271500 25010KT P6SM SCT250
     FM271700 32015G25KT P6SM SKC
     FM280100 06007KT P6SM SKC=



000
FTUS44 KOUN 270855 AAA
TAFLAW
TAF AMD
KLAW 270855Z 2709/2806 18006KT 1/2SM FG VV002
     FM271400 20005KT 2SM BR BKN002
     FM271600 32010KT P6SM SKC
     FM280100 VRB04KT P6SM SKC=



000
FTUS44 KOUN 270520
TAFHBR
TAF
KHBR 270520Z 2706/2806 VRB05KT P6SM BKN150 BKN250
     FM270800 17009KT P6SM SCT150 BKN250
     FM271200 25010KT P6SM SCT250
     FM271700 32015G25KT P6SM SKC
     FM280100 06007KT P6SM SKC=



000
FTUS44 KOUN 270520
TAFOKC
TAF
KOKC 270520Z 2706/2806 11006KT P6SM BKN150 OVC250
     FM270800 18008KT P6SM SCT150 BKN250
     FM271400 24009KT P6SM SCT250
     FM271800 31014KT P6SM FEW250
     FM280100 VRB04KT P6SM SKC=



000
FTUS44 KOUN 270520
TAFOUN
TAF
KOUN 270520Z 2706/2806 12006KT P6SM BKN150 OVC250
     FM270800 18008KT P6SM BKN250
     FM271400 24009KT P6SM SCT250
     FM271800 31014KT P6SM FEW250
     FM280100 VRB04KT P6SM SKC=



000
FTUS44 KOUN 270520
TAFSPS
TAF
KSPS 270520Z 2706/2806 11006KT P6SM BKN150 OVC250
     FM270900 18007KT P6SM SCT150 BKN250
     FM271200 24008KT P6SM SCT250
     FM271700 31013KT P6SM SKC
     FM280100 06006KT P6SM SKC=



000
FTUS44 KOUN 270520
TAFGAG
TAF
KGAG 270520Z 2706/2806 VRB04KT P6SM BKN250
     FM270800 23008KT P6SM SCT250
     FM271200 32014G25KT P6SM SKC
     FM280100 04004KT P6SM SKC=



000
FTUS44 KOUN 270520
TAFLAW
TAF
KLAW 270520Z 2706/2806 11006KT P6SM BKN150 BKN250
     FM270900 17007KT P6SM SCT150 BKN250
     FM271200 25006KT P6SM SCT250
     FM271700 32010KT P6SM SKC
     FM280100 VRB04KT P6SM SKC=



000
FTUS44 KOUN 270520
TAFWWR
TAF
KWWR 270520Z 2706/2806 22006KT P6SM BKN250
     FM271200 32014G25KT P6SM FEW250
     FM280100 03004KT P6SM SKC=



000
FTUS44 KOUN 270520
TAFPNC
TAF
KPNC 270520Z 2706/2806 10005KT P6SM BKN090 OVC250
     FM270800 16007KT P6SM BKN150 BKN250
     FM271500 30010KT P6SM SCT250
     FM280000 VRB03KT P6SM SKC=



000
FTUS44 KOUN 270336 AAA
TAFPNC
TAF AMD
KPNC 270336Z 2704/2724 29015G25KT P6SM -RA OVC080
     FM270430 01008KT P6SM BKN100 OVC250
     FM270800 16010KT P6SM SCT100 BKN250
     FM271200 20008KT P6SM BKN250
     FM271600 28012KT P6SM SCT250=



000
FTUS44 KOUN 270334 AAB
TAFOUN
TAF AMD
KOUN 270334Z 2704/2724 08009KT P6SM BKN100 OVC250
     FM270700 17008KT P6SM BKN250
     FM271700 30012KT P6SM SCT250=



000
FTUS44 KOUN 270333 AAA
TAFOKC
TAF AMD
KOKC 270333Z 2704/2724 08010KT P6SM BKN100 OVC250
     FM270700 17008KT P6SM SCT100 BKN250
     FM271700 30012KT P6SM SCT250=



000
FTUS44 KOUN 270220 AAA
TAFGAG
TAF AMD
KGAG 270220Z 2702/2724 VRB06KT P6SM BKN150 OVC250
     FM270800 23008KT P6SM BKN250
     FM271200 31010KT P6SM SCT250
     FM271600 33015G25KT P6SM SCT250=



000
FTUS44 KOUN 270220 AAA
TAFWWR
TAF AMD
KWWR 270220Z 2702/2724 VRB06KT P6SM BKN150 OVC250
     FM270900 23008KT P6SM BKN250
     FM271200 31010KT P6SM SCT250
     FM271600 33015G25KT P6SM SCT250=



000
FTUS44 KOUN 270220 AAA
TAFGAG
TAF AMD
KGAG 270220Z 2702/2724 VRB06KT P6SM BKN150 OVC250
     FM270800 23008KT P6SM BKN250
     FM271200 31010KT P6SM SCT250
     FM271600 33015G25KT P6SM SCT250=



000
FTUS44 KOUN 270215 AAA
TAFHBR
TAF AMD
KHBR 270215Z 2702/2724 09008KT P6SM BKN150 OVC250
     FM270500 16010KT P6SM SCT150 BKN250
     FM271200 24010KT P6SM SCT250
     FM271700 32015G25KT P6SM SCT250=



000
FTUS44 KOUN 270212 AAA
TAFSPS
TAF AMD
KSPS 270212Z 2702/2724 04010KT P6SM BKN150 OVC250
     FM270600 16007KT P6SM SCT150 BKN250
     FM271200 24010KT P6SM SCT250
     FM271700 32015G25KT P6SM SCT250=



000
FTUS44 KOUN 270212 AAA
TAFSPS
TAF AMD
KSPS 270212Z 2702/2724 04010KT P6SM BKN150 OVC250
     FM270600 16007KT P6SM SCT150 BKN250
     FM271200 24010KT P6SM SCT250
     FM271700 32015G25KT P6SM SCT250=



000
FTUS44 KOUN 270210 AAA
TAFLAW
TAF AMD
KLAW 270210Z 2702/2724 04010KT P6SM BKN100 OVC250
     FM270600 16007KT P6SM SCT100 OVC250
     FM271200 24006KT P6SM SCT250
     FM271700 32013G23KT P6SM SCT250=



000
FTUS44 KOUN 262340
TAFHBR
TAF
KHBR 262340Z 2700/2724 16015G25KT 5SM -TSRA BR OVC030CB
      TEMPO 2700/2702 VRB45KT 1SM +TSRA BR BKN025CB OVC150
     FM270300 18010KT P6SM BKN040 OVC150
     FM271200 24010KT P6SM SCT030 BKN250
     FM271700 32015G25KT P6SM SCT250=



000
FTUS44 KOUN 262340
TAFLAW
TAF
KLAW 262340Z 2700/2724 15016G24KT 5SM -TSRA BR BKN030CB OVC250
      TEMPO 2700/2703 VRB50KT 1SM +TSRA BR OVC020CB
     FM270500 16010KT P6SM BKN040 OVC150
     FM271200 23008KT P6SM SCT040 BKN250
     FM271700 32013G23KT P6SM SCT250=



000
FTUS44 KOUN 262340
TAFOKC
TAF
KOKC 262340Z 2700/2724 16014G21KT P6SM VCTS BKN020 OVC030CB
      TEMPO 2700/2703 VRB50KT 2SM +TSRA BR OVC020CB
     FM270400 19010KT 4SM -TSRA BR BKN030CB OVC250
     FM270600 21008KT P6SM SCT030 BKN250
     FM271700 30012KT P6SM SCT250=



000
FTUS44 KOUN 262340
TAFSPS
TAF
KSPS 262340Z 2700/2724 16016G27KT P6SM VCTS BKN030CB OVC250
      TEMPO 2700/2703 VRB50KT 2SM +TSRA BR OVC020CB
     FM270300 17010KT 5SM -TSRA BR BKN040CB OVC150
     FM270500 18008KT P6SM BKN030 OVC150
     FM271200 24010KT P6SM SCT030 BKN250
     FM271700 32015G25KT P6SM SCT250=



000
FTUS44 KOUN 262340
TAFPNC
TAF
KPNC 262340Z 2700/2724 16015G25KT P6SM VCTS OVC030CB
      TEMPO 2700/2704 VRB50KT 2SM +TSRA BR OVC020CB
     FM270400 15008KT 4SM -TSRA BR BKN030CB OVC250
     FM270700 16010KT P6SM BKN030 OVC250
     FM271200 20008KT P6SM SCT030 BKN250
     FM271600 28012KT P6SM SCT250=



000
FTUS44 KOUN 262340
TAFWWR
TAF
KWWR 262340Z 2700/2724 VRB06KT P6SM BKN100 OVC250
      TEMPO 2700/2701 4SM -TSRA BKN080CB OVC100
     FM270300 21008KT P6SM SCT020 OVC250
     FM271200 31010KT P6SM BKN030 OVC250
     FM271600 33015G25KT P6SM SCT030 SCT250=



000
FTUS44 KOUN 262340
TAFOUN
TAF
KOUN 262340Z 2700/2724 17012G21KT P6SM VCTS BKN020 OVC030CB
      TEMPO 2700/2703 VRB50KT 2SM +TSRA BR OVC020CB
     FM270400 19010KT 4SM -TSRA BR BKN030CB OVC250
     FM270600 21008KT P6SM SCT030 BKN250
     FM271700 30012KT P6SM SCT250=



000
FTUS44 KOUN 262340
TAFGAG
TAF
KGAG 262340Z 2700/2724 VRB06KT P6SM BKN100 OVC250
     FM270300 21008KT P6SM SCT020 OVC250
     FM271200 31010KT P6SM BKN030 OVC250
     FM271600 33015G25KT P6SM SCT030 SCT250=



000
FTUS44 KOUN 261737
TAFPNC
TAF
KPNC 261737Z 2618/2718 19015G25KT P6SM BKN020
     FM270000 17015G25KT 2SM +TSRA BR OVC020CB
     FM270400 19012KT P6SM BKN030 OVC250 PROB30 2704/2706 4SM -TSRA
      BR BKN030CB
     FM270800 20008KT P6SM BKN250
     FM271600 28010G15KT P6SM SCT250=



000
FTUS44 KOUN 261737
TAFOUN
TAF
KOUN 261737Z 2618/2718 18018G23KT P6SM VCTS BKN020 OVC030CB
      TEMPO 2618/2622 3SM TSRA BR BKN030CB
     FM270100 17015G25KT 2SM +TSRA BR OVC020CB
     FM270400 19012KT P6SM BKN030 OVC250 PROB30 2704/2706 4SM -TSRA
      BR BKN030CB
     FM270800 21008KT P6SM BKN250
     FM271600 30010G15KT P6SM SCT250=



000
FTUS44 KOUN 261737
TAFWWR
TAF
KWWR 261737Z 2618/2718 01010G15KT P6SM BKN250
     FM270000 16015KT P6SM SCT020 OVC250
     FM270300 21012KT P6SM SCT020 OVC250
     FM271200 31013KT P6SM BKN030 OVC250
     FM271600 32015G25KT P6SM BKN250=



000
FTUS44 KOUN 261737
TAFSPS
TAF
KSPS 261737Z 2618/2718 17020G27KT P6SM BKN030 OVC040
     FM270000 19010G15KT 3SM +TSRA BR BKN030CB
     FM270200 18010G15KT 5SM BR BKN040
     FM271200 22010KT P6SM SCT250
     FM271700 32015G25KT P6SM SKC=



000
FTUS44 KOUN 261737
TAFHBR
TAF
KHBR 261737Z 2618/2718 19015G20KT P6SM BKN030 BKN250
     FM262000 19015G20KT 3SM +TSRA BR BKN030CB
     FM270000 19010G15KT P6SM BKN030
      TEMPO 2700/2703 3SM -TSRA BR BKN030CB
     FM271200 22010KT P6SM SCT250
     FM271700 32015G25KT P6SM SKC=



000
FTUS44 KOUN 261737
TAFLAW
TAF
KLAW 261737Z 2618/2718 17015G23KT P6SM SCT030 OVC040
     FM270000 19010G15KT 3SM +TSRA BR BKN030CB
     FM270200 18010G15KT 5SM BR VCTS BKN040CB
     FM271200 22010KT P6SM SCT250
     FM271700 32015G25KT P6SM SKC=



000
FTUS44 KOUN 261737
TAFHBR
TAF
KHBR 261737Z 2618/2718 19015G20KT P6SM BKN030 BKN250
     FM262000 19015G20KT 3SM +TSRA BR BKN030CB
     FM270000 19010G15KT P6SM BKN030
      TEMPO 2700/2703 3SM -TSRA BR BKN030CB
     FM271200 22010KT P6SM SCT250
     FM271700 32015G25KT P6SM SKC=



000
FTUS44 KOUN 261737
TAFOUN
TAF
KOUN 261737Z 2618/2718 18018G23KT P6SM VCTS BKN020 OVC030CB
      TEMPO 2618/2622 3SM TSRA BR BKN030CB
     FM270100 17015G25KT 2SM +TSRA BR OVC020CB
     FM270400 19012KT P6SM BKN030 OVC250 PROB30 2704/2706 4SM -TSRA
      BR BKN030CB
     FM270800 21008KT P6SM BKN250
     FM271600 30010G15KT P6SM SCT250=



000
FTUS44 KOUN 261737
TAFGAG
TAF
KGAG 261737Z 2618/2718 01010G15KT P6SM BKN250
     FM270000 16015KT P6SM SCT020 OVC250
     FM270300 21012KT P6SM SCT020 OVC250
     FM271200 31013KT P6SM BKN030 OVC250
     FM271600 32015G25KT P6SM BKN250=



000
FTUS44 KOUN 261737
TAFLAW
TAF
KLAW 261737Z 2618/2718 17015G23KT P6SM SCT030 OVC040
     FM270000 19010G15KT 3SM +TSRA BR BKN030CB
     FM270200 18010G15KT 5SM BR VCTS BKN040CB
     FM271200 22010KT P6SM SCT250
     FM271700 32015G25KT P6SM SKC=



000
FTUS44 KOUN 261737
TAFOKC
TAF
KOKC 261737Z 2618/2718 18018G23KT P6SM VCTS BKN020 OVC030CB
      TEMPO 2618/2622 3SM TSRA BR BKN030CB
     FM270100 17015G25KT 2SM +TSRA BR OVC020CB
     FM270400 19012KT P6SM BKN030 OVC250 PROB30 2704/2706 4SM -TSRA
      BR BKN030CB
     FM270800 21008KT P6SM BKN250
     FM271600 30010G15KT P6SM SCT250=



000
FTUS44 KOUN 261737
TAFWWR
TAF
KWWR 261737Z 2618/2718 01010G15KT P6SM BKN250
     FM270000 16015KT P6SM SCT020 OVC250
     FM270300 21012KT P6SM SCT020 OVC250
     FM271200 31013KT P6SM BKN030 OVC250
     FM271600 32015G25KT P6SM BKN250=



000
FTUS44 KOUN 261737
TAFSPS
TAF
KSPS 261737Z 2618/2718 17020G27KT P6SM BKN030 OVC040
     FM270000 19010G15KT 3SM +TSRA BR BKN030CB
     FM270200 18010G15KT 5SM BR BKN040
     FM271200 22010KT P6SM SCT250
     FM271700 32015G25KT P6SM SKC=



000
FTUS44 KOUN 261737
TAFPNC
TAF
KPNC 261737Z 2618/2718 19015G25KT P6SM BKN020
     FM270000 17015G25KT 2SM +TSRA BR OVC020CB
     FM270400 19012KT P6SM BKN030 OVC250 PROB30 2704/2706 4SM -TSRA
      BR BKN030CB
     FM270800 20008KT P6SM BKN250
     FM271600 28010G15KT P6SM SCT250=



000
FTUS44 KOUN 261737
TAFOKC
TAF
KOKC 261737Z 2618/2718 18018G23KT P6SM VCTS BKN020 OVC030CB
      TEMPO 2618/2622 3SM TSRA BR BKN030CB
     FM270100 17015G25KT 2SM +TSRA BR OVC020CB
     FM270400 19012KT P6SM BKN030 OVC250 PROB30 2704/2706 4SM -TSRA
      BR BKN030CB
     FM270800 21008KT P6SM BKN250
     FM271600 30010G15KT P6SM SCT250=



000
FTUS44 KOUN 261737
TAFGAG
TAF
KGAG 261737Z 2618/2718 01010G15KT P6SM BKN250
     FM270000 16015KT P6SM SCT020 OVC250
     FM270300 21012KT P6SM SCT020 OVC250
     FM271200 31013KT P6SM BKN030 OVC250
     FM271600 32015G25KT P6SM BKN250=



    US Dept of Commerce
    National Oceanic and Atmospheric Administration
    National Weather Service
    1325 East West Highway
    Silver Spring, MD 20910
    Page Author: NWS Internet Services Team
Disclaimer
Information Quality
Credits
Glossary
Privacy Policy
Freedom of Information Act (FOIA)
About Us
Career Opportunities